Time;durP1;ratioP1;P1;durP2;ratioP2;P2;SDS_P1;SDS_P2;PMS_P1;PMS_P2;Temp;Humidity;BMP_temperature;BMP_pressure;BME280_temperature;BME280_humidity;BME280_pressure;Samples;Min_cycle;Max_cycle;Signal;HPM_P1;HPM_P2
2022/08/12 00:43:37;;;;;;;2.87;2.37;;;18.00;61.00;;;;;;5079653;28;20512;-90
2022/08/12 00:48:48;;;;;;;3.20;2.20;;;18.10;61.40;;;;;;5076884;28;20180;-90
2022/08/12 00:51:15;;;;;;;6.73;3.10;;;17.90;62.10;;;;;;5071780;28;20471;-91
2022/08/12 00:53:40;;;;;;;13.97;3.53;;;17.90;61.90;;;;;;5059255;28;20407;-91
2022/08/12 00:56:06;;;;;;;3.73;2.40;;;18.00;62.90;;;;;;5073746;28;20470;-89
2022/08/12 00:58:33;;;;;;;3.60;2.63;;;;;;;;;;5079078;28;20180;-88
2022/08/12 01:01:08;;;;;;;2.63;2.43;;;17.80;64.70;;;;;;5071078;28;20964;-92
2022/08/12 01:11:53;;;;;;;2.63;2.27;;;17.90;65.30;;;;;;5086426;28;20477;-89
2022/08/12 01:14:24;;;;;;;9.33;2.70;;;17.80;65.90;;;;;;5088034;28;20493;-89
2022/08/12 01:16:54;;;;;;;5.90;3.47;;;18.00;65.00;;;;;;5087721;28;20442;-91
2022/08/12 01:19:22;;;;;;;3.47;2.47;;;19.30;67.80;;;;;;5087638;28;20422;-93
2022/08/12 01:22:19;;;;;;;5.10;3.03;;;19.50;66.70;;;;;;5086701;28;20418;-90
2022/08/12 01:24:53;;;;;;;4.00;2.87;;;18.60;61.80;;;;;;5075918;28;20470;-89
2022/08/12 01:27:21;;;;;;;3.43;2.80;;;18.60;62.30;;;;;;5077795;28;20484;-88
2022/08/12 01:29:50;;;;;;;7.93;3.10;;;18.60;63.00;;;;;;5076631;28;20422;-87
2022/08/12 01:32:19;;;;;;;3.23;2.90;;;18.40;63.00;;;;;;5080290;28;20426;-90
2022/08/12 01:34:56;;;;;;;2.57;2.37;;;18.10;67.10;;;;;;5086066;28;20446;-90
2022/08/12 01:37:24;;;;;;;4.00;3.23;;;18.10;68.30;;;;;;5074180;28;20529;-89
2022/08/12 01:39:52;;;;;;;4.73;3.13;;;17.80;69.40;;;;;;5081525;28;20438;-90
2022/08/12 01:42:21;;;;;;;4.10;2.60;;;17.60;72.30;;;;;;5080076;28;20422;-90
2022/08/12 01:44:54;;;;;;;3.87;2.93;;;17.20;75.00;;;;;;5069204;28;20486;-91
2022/08/12 01:47:41;;;;;;;3.30;2.47;;;17.70;76.50;;;;;;5073586;28;20428;-91
2022/08/12 01:50:23;;;;;;;2.67;2.47;;;17.10;79.60;;;;;;5075475;28;20485;-90
2022/08/12 01:53:10;;;;;;;3.20;2.90;;;17.00;81.30;;;;;;5074084;28;20459;-90
2022/08/12 01:55:40;;;;;;;3.90;2.50;;;16.90;83.00;;;;;;5073204;28;20454;-90
2022/08/12 02:01:23;;;;;;;4.73;3.40;;;17.00;85.50;;;;;;5034450;28;20435;-90
2022/08/12 02:13:32;;;;;;;4.00;2.80;;;17.10;87.60;;;;;;5073155;28;20434;-90
2022/08/12 02:16:26;;;;;;;2.30;2.10;;;17.10;88.60;;;;;;5083332;28;20465;-90
2022/08/12 02:19:05;;;;;;;3.97;2.70;;;17.00;89.10;;;;;;5086052;28;20491;-89
2022/08/12 02:21:46;;;;;;;3.60;2.87;;;17.10;88.90;;;;;;5087172;28;20489;-90
2022/08/12 02:24:17;;;;;;;3.07;2.37;;;17.00;89.50;;;;;;5066476;28;20455;-89
2022/08/12 02:26:45;;;;;;;3.23;2.67;;;16.80;90.60;;;;;;5075163;28;20495;-90
2022/08/12 02:29:12;;;;;;;3.47;2.87;;;16.80;91.60;;;;;;5073768;28;20495;-89
2022/08/12 02:31:38;;;;;;;5.10;2.43;;;16.80;92.50;;;;;;5066552;28;20462;-91
2022/08/12 02:34:06;;;;;;;6.83;2.60;;;16.80;92.20;;;;;;5067827;28;20478;-89
2022/08/12 02:36:33;;;;;;;4.63;3.10;;;16.70;92.10;;;;;;5087340;28;20450;-91
2022/08/12 02:38:59;;;;;;;3.33;2.70;;;;;;;;;;5080680;28;20423;-92
2022/08/12 02:41:28;;;;;;;13.20;2.97;;;16.60;92.10;;;;;;5073449;28;20434;-89
2022/08/12 02:43:59;;;;;;;3.13;2.80;;;16.80;92.50;;;;;;5065063;28;20471;-89
2022/08/12 02:46:30;;;;;;;4.50;2.67;;;16.60;93.00;;;;;;5065867;28;20455;-89
2022/08/12 02:49:20;;;;;;;4.80;3.00;;;16.60;92.90;;;;;;5067289;28;20457;-90
2022/08/12 02:51:46;;;;;;;3.90;3.40;;;16.60;92.50;;;;;;5068994;28;20438;-89
2022/08/12 02:54:12;;;;;;;4.40;2.90;;;16.50;92.40;;;;;;5076182;28;20450;-89
2022/08/12 02:56:39;;;;;;;3.97;2.57;;;16.50;92.90;;;;;;5077073;28;20466;-89
2022/08/12 02:59:12;;;;;;;9.23;2.97;;;16.40;93.10;;;;;;5071711;28;20181;-90
2022/08/12 03:02:02;;;;;;;5.77;3.20;;;16.40;93.40;;;;;;5074252;28;20436;-89
2022/08/12 03:04:37;;;;;;;2.83;2.60;;;16.30;94.10;;;;;;5071222;28;20486;-90
2022/08/12 03:07:27;;;;;;;3.43;3.13;;;17.50;95.00;;;;;;5072492;28;20870;-90
2022/08/12 03:10:09;;;;;;;3.10;2.70;;;16.20;94.70;;;;;;5066453;28;20889;-90
2022/08/12 03:12:41;;;;;;;4.73;2.70;;;16.20;95.10;;;;;;5071209;28;20777;-91
2022/08/12 03:15:10;;;;;;;3.70;2.73;;;16.10;96.00;;;;;;5067489;28;20517;-90
2022/08/12 03:17:42;;;;;;;4.33;2.77;;;16.00;95.80;;;;;;5074463;28;20860;-90
2022/08/12 03:20:10;;;;;;;3.10;2.77;;;16.10;96.30;;;;;;5071778;28;20516;-90
2022/08/12 03:22:39;;;;;;;5.23;3.10;;;16.10;96.70;;;;;;5068674;28;21427;-90
2022/08/12 03:25:05;;;;;;;3.58;2.85;;;16.10;97.00;;;;;;5070571;28;20482;-90
2022/08/12 03:27:31;;;;;;;3.73;2.70;;;16.00;97.40;;;;;;5068034;28;20177;-90
2022/08/12 03:29:58;;;;;;;3.67;2.70;;;15.90;98.10;;;;;;5064921;28;20431;-89
2022/08/12 03:32:24;;;;;;;3.67;2.47;;;15.80;98.70;;;;;;5068248;28;20208;-90
2022/08/12 03:34:50;;;;;;;2.67;2.47;;;15.70;99.80;;;;;;5070191;28;20187;-91
2022/08/12 03:37:19;;;;;;;3.72;2.83;;;15.60;99.90;;;;;;5082650;28;20579;-93
2022/08/12 03:39:45;;;;;;;5.47;2.88;;;15.60;99.90;;;;;;5075610;28;20181;-94
2022/08/12 03:42:32;;;;;;;3.63;3.15;;;15.50;99.90;;;;;;5089027;28;20192;-93
2022/08/12 04:01:58;;;;;;;5.55;2.50;;;15.30;99.90;;;;;;5066650;28;20227;-89
2022/08/12 04:04:33;;;;;;;3.22;2.53;;;15.20;99.90;;;;;;5072785;28;20246;-90
2022/08/12 04:07:07;;;;;;;4.55;3.03;;;15.40;99.90;;;;;;5080010;28;20292;-94
2022/08/12 04:09:34;;;;;;;4.13;2.45;;;15.60;99.90;;;;;;5079782;28;20172;-93
2022/08/12 04:14:45;;;;;;;6.93;2.60;;;15.90;99.90;;;;;;5062403;28;20168;-91
2022/08/12 04:17:11;;;;;;;10.70;3.83;;;15.80;99.90;;;;;;5067111;28;20431;-92
2022/08/12 04:19:37;;;;;;;7.20;3.50;;;15.90;99.90;;;;;;5063087;28;20423;-87
2022/08/12 04:22:03;;;;;;;5.47;2.60;;;16.00;99.90;;;;;;5057437;28;20433;-86
2022/08/12 04:24:33;;;;;;;4.57;2.80;;;16.00;99.90;;;;;;5058142;28;20467;-87
2022/08/12 04:26:59;;;;;;;2.70;2.50;;;16.00;99.90;;;;;;5065199;28;20199;-89
2022/08/12 04:29:25;;;;;;;2.70;2.50;;;16.00;99.90;;;;;;5072208;28;20510;-93
2022/08/12 04:31:53;;;;;;;6.83;3.00;;;16.50;99.90;;;;;;5072584;28;20180;-90
2022/08/12 04:34:19;;;;;;;11.40;3.03;;;17.30;99.70;;;;;;5071604;28;20479;-89
2022/08/12 04:36:44;;;;;;;4.17;3.57;;;18.20;98.10;;;;;;5075450;28;20970;-90
2022/08/12 04:39:11;;;;;;;8.83;2.73;;;18.70;94.20;;;;;;5075221;28;20523;-88
2022/08/12 04:41:38;;;;;;;5.10;3.20;;;19.50;92.60;;;;;;5065760;28;20222;-88
2022/08/12 04:44:05;;;;;;;4.80;3.20;;;20.20;86.90;;;;;;5064974;28;20521;-83
2022/08/12 04:46:30;;;;;;;4.67;2.60;;;21.20;85.00;;;;;;5057417;28;20577;-84
2022/08/12 04:48:56;;;;;;;8.30;4.60;;;22.50;80.10;;;;;;5057127;28;20509;-84
2022/08/12 04:51:22;;;;;;;4.70;3.57;;;23.30;71.00;;;;;;5058817;28;20665;-85
2022/08/12 04:53:48;;;;;;;7.30;3.00;;;23.60;68.30;;;;;;5056575;28;20389;-84
2022/08/12 04:56:14;;;;;;;7.03;3.20;;;24.60;65.70;;;;;;5048947;28;20512;-85
2022/08/12 04:58:40;;;;;;;9.53;3.20;;;25.50;60.00;;;;;;5051430;28;20439;-85
2022/08/12 05:01:07;;;;;;;3.50;2.40;;;26.30;59.10;;;;;;5047821;28;20434;-84
2022/08/12 05:03:34;;;;;;;4.93;3.33;;;27.70;55.50;;;;;;5056974;28;20208;-85
2022/08/12 05:06:00;;;;;;;3.83;3.43;;;28.30;52.00;;;;;;5052230;28;20498;-83
2022/08/12 05:08:26;;;;;;;5.20;3.37;;;29.50;51.30;;;;;;5053595;28;20433;-85
2022/08/12 05:10:52;;;;;;;6.53;3.60;;;30.80;48.50;;;;;;5052285;28;20441;-86
2022/08/12 05:13:20;;;;;;;4.20;3.80;;;32.10;46.00;;;;;;5060173;28;20638;-86
2022/08/12 05:15:46;;;;;;;5.50;3.90;;;32.90;42.90;;;;;;5053462;28;20209;-85
2022/08/12 05:18:13;;;;;;;4.47;4.00;;;33.70;40.90;;;;;;5054181;28;20454;-86
2022/08/12 05:20:42;;;;;;;4.57;4.13;;;34.30;40.30;;;;;;5050236;28;20565;-85
2022/08/12 05:23:18;;;;;;;3.90;3.60;;;34.90;37.00;;;;;;5052349;28;20498;-86
2022/08/12 05:25:46;;;;;;;4.53;4.10;;;35.40;34.60;;;;;;5044428;28;20432;-85
2022/08/12 05:28:14;;;;;;;5.23;4.83;;;35.30;34.90;;;;;;5057227;28;20435;-83
2022/08/12 05:30:41;;;;;;;6.97;5.17;;;35.20;34.50;;;;;;5055094;28;20426;-85
2022/08/12 05:33:07;;;;;;;10.00;5.00;;;35.20;34.20;;;;;;5052996;28;20427;-86
2022/08/12 05:35:38;;;;;;;6.57;4.20;;;35.50;34.00;;;;;;5051889;28;20477;-85
2022/08/12 05:41:03;;;;;;;6.90;5.53;;;36.50;32.70;;;;;;5051685;28;20802;-85
2022/08/12 05:43:29;;;;;;;5.80;5.43;;;36.90;31.80;;;;;;5063432;28;20476;-86
2022/08/12 05:45:55;;;;;;;7.50;5.67;;;37.40;31.50;;;;;;5055272;28;20486;-85
2022/08/12 05:48:21;;;;;;;6.67;6.17;;;37.70;31.00;;;;;;5055300;28;20184;-85
2022/08/12 05:50:46;;;;;;;6.70;6.20;;;38.40;30.10;;;;;;5050362;28;20241;-86
2022/08/12 05:53:12;;;;;;;7.60;6.97;;;38.90;29.60;;;;;;5053491;28;20948;-85
2022/08/12 05:55:39;;;;;;;7.67;7.07;;;39.30;29.20;;;;;;5049663;28;20216;-86
2022/08/12 05:58:06;;;;;;;7.73;7.33;;;39.90;28.90;;;;;;5063104;28;20187;-86
2022/08/12 06:00:33;;;;;;;8.00;7.50;;;40.50;28.70;;;;;;5059815;28;21122;-85
2022/08/12 06:02:59;;;;;;;9.10;8.27;;;40.40;27.90;;;;;;5058471;28;20468;-86
2022/08/12 06:05:33;;;;;;;9.20;8.47;;;40.50;28.00;;;;;;5055782;28;21413;-85
2022/08/12 06:07:59;;;;;;;9.87;9.00;;;41.00;27.40;;;;;;5058840;28;20436;-85
2022/08/12 06:10:24;;;;;;;8.80;8.10;;;40.70;27.00;;;;;;5054274;28;20424;-86
2022/08/12 06:12:50;;;;;;;9.47;8.87;;;40.30;27.20;;;;;;5065997;28;20502;-86
2022/08/12 06:15:19;;;;;;;12.83;8.27;;;40.30;27.20;;;;;;5062342;28;20199;-86
2022/08/12 06:17:45;;;;;;;9.07;8.40;;;40.50;27.20;;;;;;5064105;28;20423;-86
2022/08/12 06:20:14;;;;;;;9.30;8.53;;;41.00;27.00;;;;;;5070623;28;20402;-86
2022/08/12 06:22:39;;;;;;;8.90;8.50;;;41.40;26.80;;;;;;5061062;28;20406;-85
2022/08/12 06:25:06;;;;;;;10.50;9.50;;;42.60;26.50;;;;;;5074002;28;21211;-85
2022/08/12 06:27:33;;;;;;;10.20;9.70;;;44.70;25.00;;;;;;5070828;28;20179;-84
2022/08/12 06:30:01;;;;;;;12.20;9.97;;;44.70;25.20;;;;;;5067191;28;20434;-84
2022/08/12 06:32:27;;;;;;;11.50;10.43;;;43.70;24.10;;;;;;5056022;28;20427;-85
2022/08/12 06:34:55;;;;;;;11.50;10.30;;;43.50;24.50;;;;;;5057537;28;20879;-86
2022/08/12 06:37:20;;;;;;;10.63;10.13;;;43.50;24.90;;;;;;5056007;28;20430;-85
2022/08/12 06:39:46;;;;;;;10.33;9.73;;;44.00;24.50;;;;;;5057594;28;20502;-85
2022/08/12 06:44:56;;;;;;;11.00;10.20;;;43.50;24.10;;;;;;5060352;28;20287;-85
2022/08/12 06:47:21;;;;;;;11.00;10.27;;;43.50;24.50;;;;;;5058028;28;20514;-85
2022/08/12 06:49:48;;;;;;;12.80;11.83;;;41.30;24.90;;;;;;5058937;28;20191;-85
2022/08/12 06:52:13;;;;;;;11.13;10.40;;;41.30;25.80;;;;;;5055803;28;20242;-85
2022/08/12 06:54:41;;;;;;;10.97;10.10;;;42.20;25.60;;;;;;5054840;28;20438;-85
2022/08/12 06:57:07;;;;;;;13.47;9.40;;;41.30;26.10;;;;;;5059129;28;20215;-86
2022/08/12 06:59:34;;;;;;;10.30;9.40;;;40.30;25.90;;;;;;5056858;28;20911;-85
2022/08/12 07:01:59;;;;;;;10.03;9.10;;;40.20;26.30;;;;;;5060250;28;20192;-86
2022/08/12 07:04:25;;;;;;;9.67;8.87;;;39.30;26.90;;;;;;5055164;28;20462;-85
2022/08/12 07:06:54;;;;;;;10.80;9.50;;;40.50;26.60;;;;;;5053391;28;20208;-86
2022/08/12 07:09:20;;;;;;;10.47;9.87;;;41.30;26.30;;;;;;5061953;28;20495;-86
2022/08/12 07:11:45;;;;;;;10.50;9.90;;;42.50;25.80;;;;;;5056150;28;20527;-85
2022/08/12 07:14:11;;;;;;;11.23;10.33;;;43.60;24.50;;;;;;5052922;28;20224;-86
2022/08/12 07:16:51;;;;;;;10.80;10.10;;;42.20;25.20;;;;;;5052849;28;20214;-85
2022/08/12 07:19:18;;;;;;;10.80;10.13;;;43.80;25.00;;;;;;5047157;28;20176;-85
2022/08/12 07:21:44;;;;;;;11.17;10.10;;;45.10;24.20;;;;;;5053505;28;20474;-85
2022/08/12 07:24:10;;;;;;;12.57;11.30;;;45.90;23.70;;;;;;5054793;28;20938;-85
2022/08/12 07:26:40;;;;;;;11.47;10.67;;;45.90;23.60;;;;;;5054742;28;20464;-85
2022/08/12 07:29:08;;;;;;;12.67;11.53;;;46.00;23.30;;;;;;5066654;28;20192;-85
2022/08/12 07:31:35;;;;;;;12.33;11.53;;;45.50;23.30;;;;;;5052142;28;20521;-85
2022/08/12 07:34:00;;;;;;;11.80;11.20;;;43.60;24.00;;;;;;5054536;28;20884;-85
2022/08/12 07:36:26;;;;;;;13.10;12.00;;;43.80;24.30;;;;;;5052038;28;20427;-85
2022/08/12 07:38:52;;;;;;;13.13;12.43;;;44.00;24.40;;;;;;5051933;28;20616;-85
2022/08/12 07:41:18;;;;;;;13.17;12.23;;;44.50;24.20;;;;;;5056811;28;20929;-85
2022/08/12 07:43:50;;;;;;;13.30;12.50;;;45.10;23.70;;;;;;5057855;28;20195;-85
2022/08/12 07:46:19;;;;;;;14.67;13.40;;;45.30;23.80;;;;;;5056138;28;20521;-85
2022/08/12 07:48:51;;;;;;;13.37;12.33;;;43.50;23.90;;;;;;5056769;28;21240;-85
2022/08/12 07:51:18;;;;;;;12.17;11.47;;;42.90;25.10;;;;;;5055103;28;20435;-85
2022/08/12 07:53:45;;;;;;;13.43;12.53;;;44.30;24.10;;;;;;5053002;28;20439;-85
2022/08/12 07:56:11;;;;;;;13.77;12.77;;;43.90;23.60;;;;;;5055705;28;20854;-84
2022/08/12 07:58:39;;;;;;;12.97;12.07;;;43.90;24.00;;;;;;5059169;28;20434;-85
2022/08/12 08:01:10;;;;;;;12.97;12.17;;;43.80;23.80;;;;;;5055714;28;20587;-85
2022/08/12 08:04:54;;;;;;;12.43;11.73;;;43.70;23.90;;;;;;5060897;28;20485;-85
2022/08/12 08:06:26;;;;;;;13.73;12.53;;;41.60;24.20;;;;;;5055064;28;20475;-85
2022/08/12 08:08:55;;;;;;;13.07;12.37;;;41.50;24.60;;;;;;5058324;28;20522;-85
2022/08/12 08:14:06;;;;;;;12.47;11.77;;;41.00;25.70;;;;;;5058215;28;20488;-85
2022/08/12 08:16:32;;;;;;;12.30;11.60;;;40.40;25.80;;;;;;5059636;28;20462;-85
2022/08/12 08:18:58;;;;;;;11.70;11.00;;;40.40;26.50;;;;;;5060168;28;20215;-85
2022/08/12 08:21:28;;;;;;;12.40;11.80;;;40.90;26.00;;;;;;5064608;28;20972;-85
2022/08/12 08:26:37;;;;;;;13.27;12.50;;;42.90;24.50;;;;;;5056074;28;20485;-86
2022/08/12 08:29:03;;;;;;;12.60;11.60;;;43.20;24.50;;;;;;5058926;28;20450;-87
2022/08/12 08:31:28;;;;;;;13.50;12.67;;;43.40;24.80;;;;;;5058640;28;20177;-86
2022/08/12 08:33:54;;;;;;;13.37;12.70;;;44.60;23.60;;;;;;5069056;28;20215;-86
2022/08/12 08:36:20;;;;;;;14.37;13.40;;;45.20;23.10;;;;;;5056558;28;20759;-86
2022/08/12 08:38:46;;;;;;;13.70;12.97;;;45.10;23.10;;;;;;5056759;28;20201;-87
2022/08/12 08:43:59;;;;;;;14.80;13.90;;;;;;;;;;5059395;28;20231;-86
2022/08/12 08:46:26;;;;;;;9.80;9.10;;;45.50;21.90;;;;;;5061537;28;20813;-86
2022/08/12 08:48:52;;;;;;;9.67;9.17;;;44.70;22.60;;;;;;5062569;28;20420;-85
2022/08/12 08:51:17;;;;;;;14.57;13.67;;;44.10;22.60;;;;;;5057593;28;20435;-85
2022/08/12 08:53:43;;;;;;;13.33;12.40;;;43.00;22.70;;;;;;5056236;28;23408;-85
2022/08/12 08:56:09;;;;;;;13.80;12.60;;;42.60;23.80;;;;;;5059313;28;20212;-86
2022/08/12 08:58:37;;;;;;;13.70;12.77;;;42.30;23.80;;;;;;5057478;28;20311;-85
2022/08/12 09:01:03;;;;;;;14.60;13.60;;;41.90;24.10;;;;;;5057887;28;20609;-86
2022/08/12 09:03:29;;;;;;;14.73;13.93;;;42.50;24.40;;;;;;5056466;28;20518;-84
2022/08/12 09:05:55;;;;;;;12.50;11.60;;;42.00;23.80;;;;;;5053178;28;20565;-84
2022/08/12 09:08:21;;;;;;;11.40;10.90;;;41.30;23.60;;;;;;5055359;28;20263;-83
2022/08/12 09:10:47;;;;;;;9.90;9.43;;;39.50;23.90;;;;;;5053295;28;21136;-86
2022/08/12 09:13:31;;;;;;;9.90;9.40;;;37.90;24.60;;;;;;5061649;28;20446;-86
2022/08/12 09:15:57;;;;;;;10.90;10.40;;;37.30;25.50;;;;;;5057391;28;20853;-86
2022/08/12 09:18:23;;;;;;;10.23;9.60;;;37.90;25.30;;;;;;5064422;28;20452;-86
2022/08/12 09:20:49;;;;;;;10.83;10.07;;;38.10;25.30;;;;;;5067450;28;20647;-86
2022/08/12 09:23:16;;;;;;;10.50;10.00;;;37.60;25.60;;;;;;5053670;28;20469;-86
2022/08/12 09:25:47;;;;;;;10.97;10.43;;;37.40;25.80;;;;;;5054206;28;20453;-88
2022/08/12 09:28:13;;;;;;;9.90;9.40;;;37.10;26.10;;;;;;5055788;28;21574;-86
2022/08/12 09:30:45;;;;;;;11.13;10.43;;;36.80;26.30;;;;;;5058142;28;20584;-85
2022/08/12 09:33:11;;;;;;;10.23;9.73;;;36.10;26.60;;;;;;5072436;28;21203;-86
2022/08/12 09:35:43;;;;;;;10.17;9.47;;;36.00;27.10;;;;;;5059451;28;20454;-86
2022/08/12 09:38:14;;;;;;;9.97;9.50;;;36.60;26.60;;;;;;5058097;28;20915;-86
2022/08/12 09:40:40;;;;;;;9.60;9.00;;;36.50;26.30;;;;;;5059091;28;20937;-86
2022/08/12 09:45:50;;;;;;;9.90;9.10;;;35.80;26.40;;;;;;5060164;28;20460;-86
2022/08/12 09:48:16;;;;;;;10.50;9.80;;;35.80;27.00;;;;;;5061480;28;20438;-86
2022/08/12 09:50:44;;;;;;;9.90;9.30;;;36.10;26.80;;;;;;5062599;28;20178;-87
2022/08/12 09:53:12;;;;;;;10.53;9.73;;;36.60;26.60;;;;;;5059079;28;20182;-87
2022/08/12 09:55:41;;;;;;;9.53;9.03;;;36.40;26.70;;;;;;5065598;28;20455;-86
2022/08/12 09:58:07;;;;;;;9.90;9.30;;;35.70;26.70;;;;;;5065513;28;21674;-85
2022/08/12 10:00:36;;;;;;;9.23;8.73;;;35.40;27.00;;;;;;5064665;28;20539;-85
2022/08/12 10:03:03;;;;;;;9.80;9.30;;;35.00;27.00;;;;;;5063430;28;20195;-86
2022/08/12 10:05:35;;;;;;;9.23;8.63;;;35.60;26.60;;;;;;5060120;28;20460;-86
2022/08/12 10:08:04;;;;;;;8.90;8.30;;;35.60;26.40;;;;;;5059094;28;20427;-86
2022/08/12 10:10:30;;;;;;;8.47;7.83;;;35.20;26.30;;;;;;5062038;28;20442;-86
2022/08/12 10:15:43;;;;;;;8.30;7.80;;;34.40;26.60;;;;;;5059235;28;20535;-86
2022/08/12 10:18:12;;;;;;;9.07;8.17;;;34.50;27.20;;;;;;5061386;28;20508;-86
2022/08/12 10:20:39;;;;;;;8.90;8.40;;;34.30;27.70;;;;;;5064497;28;20511;-86
2022/08/12 10:23:06;;;;;;;7.60;7.10;;;34.40;27.20;;;;;;5063173;28;20436;-85
2022/08/12 10:31:02;;;;;;;6.63;6.17;;;32.90;26.80;;;;;;5065157;28;20443;-86
2022/08/12 10:33:32;;;;;;;7.00;6.60;;;31.40;29.40;;;;;;5071080;28;20431;-86
2022/08/12 10:35:59;;;;;;;6.37;5.90;;;30.50;29.90;;;;;;5066185;28;20461;-87
2022/08/12 10:38:24;;;;;;;6.33;5.90;;;30.00;30.40;;;;;;5062750;28;20430;-85
2022/08/12 10:43:41;;;;;;;4.67;4.17;;;29.20;31.30;;;;;;5065895;28;20210;-87
2022/08/12 10:46:07;;;;;;;5.40;4.00;;;29.00;32.20;;;;;;5065062;28;20450;-86
2022/08/12 10:48:33;;;;;;;4.80;4.50;;;28.70;32.00;;;;;;5064467;28;20432;-86
2022/08/12 10:51:03;;;;;;;6.30;4.23;;;28.90;32.40;;;;;;5069324;28;20446;-84
2022/08/12 10:53:32;;;;;;;8.30;4.13;;;29.00;32.60;;;;;;5062921;28;20183;-86
2022/08/12 10:55:57;;;;;;;4.83;4.50;;;28.90;32.90;;;;;;5063270;28;20459;-85
2022/08/12 10:58:23;;;;;;;4.60;4.30;;;28.80;33.20;;;;;;5064709;28;20435;-85
2022/08/12 11:00:48;;;;;;;5.30;4.60;;;29.00;33.50;;;;;;5062386;28;20559;-83
2022/08/12 11:03:14;;;;;;;5.00;4.10;;;29.30;33.30;;;;;;5075643;28;20210;-85
2022/08/12 11:05:40;;;;;;;4.60;3.87;;;29.00;33.00;;;;;;5060041;28;20205;-85
2022/08/12 11:08:06;;;;;;;6.77;4.47;;;28.90;33.40;;;;;;5064234;28;20188;-85
2022/08/12 11:10:32;;;;;;;11.10;4.23;;;28.70;33.10;;;;;;5066132;28;20184;-85
2022/08/12 11:12:58;;;;;;;14.40;5.70;;;28.50;33.90;;;;;;5064539;28;20449;-85
2022/08/12 11:15:24;;;;;;;5.70;5.20;;;28.80;33.00;;;;;;5073429;28;20482;-85
2022/08/12 11:17:50;;;;;;;8.80;4.60;;;28.80;32.80;;;;;;5063923;28;22044;-84
2022/08/12 11:20:16;;;;;;;4.40;4.10;;;28.70;32.70;;;;;;5063211;28;20936;-85
2022/08/12 11:22:41;;;;;;;5.50;5.00;;;28.80;33.10;;;;;;5061413;28;20515;-85
2022/08/12 11:25:08;;;;;;;4.73;4.27;;;28.90;33.20;;;;;;5058581;28;20207;-86
2022/08/12 11:27:34;;;;;;;8.70;4.00;;;29.00;32.90;;;;;;5062781;28;20172;-84
2022/08/12 11:29:59;;;;;;;6.20;4.80;;;29.00;33.30;;;;;;5061965;28;21141;-85
2022/08/12 11:32:25;;;;;;;5.47;3.43;;;29.10;33.90;;;;;;5072704;28;20522;-85
2022/08/12 11:34:51;;;;;;;5.27;4.30;;;29.60;32.40;;;;;;5058602;28;20208;-86
2022/08/12 11:37:16;;;;;;;4.40;4.10;;;29.70;33.10;;;;;;5059692;28;20267;-86
2022/08/12 11:39:42;;;;;;;7.77;4.33;;;30.10;32.20;;;;;;5059072;28;20205;-85
2022/08/12 11:42:08;;;;;;;6.57;4.70;;;30.30;32.30;;;;;;5062683;28;20180;-85
2022/08/12 11:44:33;;;;;;;4.57;4.17;;;30.10;32.30;;;;;;5060385;28;20213;-85
2022/08/12 11:46:59;;;;;;;9.40;4.60;;;30.10;32.80;;;;;;5059352;28;20204;-85
2022/08/12 11:49:26;;;;;;;6.90;3.87;;;30.20;32.00;;;;;;5058744;28;20181;-86
2022/08/12 11:51:51;;;;;;;5.17;4.00;;;30.50;31.60;;;;;;5058965;28;20188;-84
2022/08/12 11:54:17;;;;;;;4.50;4.20;;;30.50;31.30;;;;;;5059776;28;20794;-83
2022/08/12 11:56:43;;;;;;;4.40;3.97;;;29.90;31.40;;;;;;5061160;28;20230;-85
2022/08/12 11:59:08;;;;;;;3.67;3.40;;;29.40;32.10;;;;;;5059089;28;20230;-85
2022/08/12 12:01:34;;;;;;;7.93;4.00;;;29.40;31.80;;;;;;5061572;28;20185;-85
2022/08/12 12:03:59;;;;;;;4.83;4.40;;;29.30;31.60;;;;;;5059371;28;20214;-84
2022/08/12 12:06:26;;;;;;;3.67;3.30;;;29.30;32.00;;;;;;5056851;28;20644;-86
2022/08/12 12:08:52;;;;;;;4.20;3.90;;;29.50;31.90;;;;;;5049256;28;20791;-87
2022/08/12 12:11:18;;;;;;;3.63;3.33;;;29.80;32.10;;;;;;5058239;28;20530;-86
2022/08/12 12:13:44;;;;;;;4.00;3.70;;;30.10;31.10;;;;;;5054676;28;20180;-85
2022/08/12 12:16:09;;;;;;;4.50;3.87;;;30.40;31.00;;;;;;5054939;28;20502;-85
2022/08/12 12:18:35;;;;;;;7.50;4.57;;;30.40;29.90;;;;;;5056412;28;20756;-86
2022/08/12 12:21:03;;;;;;;4.93;4.53;;;30.50;30.00;;;;;;5057624;28;20177;-87
2022/08/12 12:23:29;;;;;;;3.90;3.60;;;30.90;29.80;;;;;;5058014;28;20543;-87
2022/08/12 12:25:55;;;;;;;4.10;3.63;;;31.20;30.20;;;;;;5062383;28;20450;-86
2022/08/12 12:28:21;;;;;;;4.27;3.90;;;31.10;28.50;;;;;;5060153;28;20618;-86
2022/08/12 12:30:46;;;;;;;3.83;3.63;;;31.00;29.10;;;;;;5058830;28;20434;-86
2022/08/12 12:33:12;;;;;;;4.03;3.57;;;30.80;29.90;;;;;;5064295;28;20188;-86
2022/08/12 12:35:40;;;;;;;6.07;4.07;;;30.00;30.00;;;;;;5057746;28;20197;-85
2022/08/12 12:38:08;;;;;;;4.20;3.90;;;29.70;30.40;;;;;;5062728;28;20843;-85
2022/08/12 12:40:35;;;;;;;5.70;4.17;;;29.90;30.70;;;;;;5064680;28;20463;-86
2022/08/12 12:43:01;;;;;;;5.60;5.20;;;30.10;30.50;;;;;;5060693;28;21375;-86
2022/08/12 12:45:28;;;;;;;4.20;3.90;;;30.20;30.20;;;;;;5074780;28;20511;-89
2022/08/12 12:48:04;;;;;;;3.90;3.60;;;30.20;29.70;;;;;;5058833;28;20432;-86
2022/08/12 12:50:36;;;;;;;4.30;4.00;;;30.70;30.00;;;;;;5074250;28;21626;-87
2022/08/12 12:53:02;;;;;;;3.17;3.07;;;30.80;29.80;;;;;;5073548;28;20438;-86
2022/08/12 12:55:28;;;;;;;6.90;3.80;;;31.10;29.90;;;;;;5056309;28;20541;-86
2022/08/12 12:57:55;;;;;;;4.90;4.13;;;30.70;30.10;;;;;;5061671;28;20564;-87
2022/08/12 13:00:21;;;;;;;5.73;4.10;;;30.30;30.60;;;;;;5053958;28;20195;-86
2022/08/12 13:02:51;;;;;;;3.33;3.03;;;30.30;30.40;;;;;;5059263;28;20432;-87
2022/08/12 13:05:46;;;;;;;5.30;4.37;;;30.40;30.00;;;;;;5057284;28;20341;-87
2022/08/12 13:08:23;;;;;;;5.10;4.80;;;30.40;30.30;;;;;;5038005;28;20702;-87
2022/08/12 13:10:59;;;;;;;4.67;4.30;;;30.80;30.00;;;;;;5058091;28;20422;-86
2022/08/12 13:13:26;;;;;;;3.40;3.20;;;30.70;30.50;;;;;;5051972;28;21175;-86
2022/08/12 13:15:53;;;;;;;4.73;3.60;;;30.80;30.50;;;;;;5071992;28;20936;-87
2022/08/12 13:18:20;;;;;;;4.73;3.67;;;30.60;30.10;;;;;;5052602;28;20427;-87
2022/08/12 13:20:46;;;;;;;4.60;3.30;;;30.50;30.50;;;;;;5052166;28;20446;-86
2022/08/12 13:23:15;;;;;;;4.17;3.33;;;30.60;30.10;;;;;;5060023;28;20798;-88
2022/08/12 13:25:41;;;;;;;3.77;2.97;;;31.00;30.50;;;;;;5056673;28;20450;-86
2022/08/12 13:28:07;;;;;;;5.20;3.10;;;32.80;30.70;;;;;;5056852;28;20526;-87
2022/08/12 13:30:37;;;;;;;3.10;2.77;;;30.50;30.00;;;;;;5072484;28;20571;-87
2022/08/12 13:33:03;;;;;;;4.53;3.57;;;30.00;30.40;;;;;;5052709;28;21185;-88
2022/08/12 13:35:32;;;;;;;4.93;3.57;;;29.80;31.00;;;;;;5054472;28;20462;-88
2022/08/12 13:37:59;;;;;;;3.67;3.47;;;29.60;31.10;;;;;;5055294;28;20436;-86
2022/08/12 13:40:34;;;;;;;4.63;4.23;;;30.00;31.20;;;;;;5055669;28;20462;-87
2022/08/12 13:43:01;;;;;;;7.40;4.20;;;30.70;30.00;;;;;;5067498;28;20437;-87
2022/08/12 13:45:29;;;;;;;5.43;4.50;;;30.90;30.60;;;;;;5055288;28;20451;-88
2022/08/12 13:48:04;;;;;;;4.00;3.70;;;30.50;30.20;;;;;;5056776;28;20442;-87
2022/08/12 13:50:42;;;;;;;4.00;3.70;;;30.70;30.70;;;;;;5052724;28;20485;-87
2022/08/12 13:53:17;;;;;;;4.90;3.90;;;31.00;30.40;;;;;;5061616;28;20480;-88
2022/08/12 13:55:46;;;;;;;9.10;4.50;;;30.70;29.70;;;;;;5063518;28;20463;-88
2022/08/12 13:58:15;;;;;;;3.00;2.77;;;30.20;30.20;;;;;;5055518;28;20447;-87
2022/08/12 14:00:49;;;;;;;2.60;2.40;;;29.70;30.40;;;;;;5055622;28;20454;-86
2022/08/12 14:03:20;;;;;;;5.20;3.50;;;29.70;31.20;;;;;;5056973;28;20477;-85
2022/08/12 14:05:46;;;;;;;4.10;3.80;;;30.00;31.10;;;;;;5055498;28;20455;-86
2022/08/12 14:08:13;;;;;;;5.60;4.27;;;30.30;30.70;;;;;;5074573;28;20426;-88
2022/08/12 14:10:45;;;;;;;4.27;3.50;;;30.30;30.50;;;;;;5059805;28;20430;-87
2022/08/12 14:13:13;;;;;;;6.33;3.27;;;30.40;30.70;;;;;;5056029;28;20445;-87
2022/08/12 14:15:49;;;;;;;7.47;3.00;;;30.40;30.70;;;;;;5062652;28;20448;-86
2022/08/12 14:18:19;;;;;;;5.60;3.40;;;30.70;30.00;;;;;;5073215;28;20430;-87
2022/08/12 14:20:46;;;;;;;3.83;3.53;;;30.60;30.00;;;;;;5058352;28;20470;-87
2022/08/12 14:23:13;;;;;;;3.80;3.60;;;30.80;29.90;;;;;;5061220;28;20803;-87
2022/08/12 14:25:39;;;;;;;4.20;3.80;;;31.00;29.80;;;;;;5067817;28;20519;-87
2022/08/12 14:28:15;;;;;;;5.97;3.20;;;31.10;29.70;;;;;;5071902;28;20416;-88
2022/08/12 14:30:59;;;;;;;5.33;4.83;;;31.30;29.80;;;;;;5059068;28;20443;-88
2022/08/12 14:33:33;;;;;;;4.47;4.17;;;31.40;29.70;;;;;;5057571;28;20431;-88
2022/08/12 14:36:01;;;;;;;3.73;3.43;;;31.50;29.50;;;;;;5060963;28;20443;-87
2022/08/12 14:38:38;;;;;;;3.83;3.20;;;30.90;29.70;;;;;;5075901;28;20446;-88
2022/08/12 14:41:05;;;;;;;4.40;4.00;;;30.20;29.50;;;;;;5058975;28;20454;-87
2022/08/12 14:43:32;;;;;;;3.60;3.40;;;30.10;29.90;;;;;;5059939;28;20461;-87